Time;durP1;ratioP1;P1;durP2;ratioP2;P2;SDS_P1;SDS_P2;PMS_P1;PMS_P2;Temp;Humidity;BMP_temperature;BMP_pressure;BME280_temperature;BME280_humidity;BME280_pressure;Samples;Min_cycle;Max_cycle;Signal;HPM_P1;HPM_P2
2023/12/05 00:01:44;;;;;;;2.38;2.17;;;16.10;55.40;;;;;;5051532;28;20171;-60
2023/12/05 00:04:10;;;;;;;2.58;2.38;;;16.10;55.40;;;;;;5050548;28;20303;-61
2023/12/05 00:06:38;;;;;;;2.35;2.15;;;16.10;55.30;;;;;;5051382;28;20168;-61
2023/12/05 00:09:04;;;;;;;2.70;2.50;;;16.10;55.40;;;;;;5050548;28;20176;-61
2023/12/05 00:11:29;;;;;;;2.72;2.53;;;16.00;55.30;;;;;;5051352;28;20221;-62
2023/12/05 00:13:55;;;;;;;2.45;2.20;;;16.00;55.30;;;;;;5051676;28;20229;-62
2023/12/05 00:16:20;;;;;;;2.60;2.40;;;16.00;55.30;;;;;;5050627;28;20171;-61
2023/12/05 00:18:49;;;;;;;2.55;2.35;;;16.00;55.30;;;;;;5051462;28;20171;-61
2023/12/05 00:21:18;;;;;;;2.45;2.25;;;16.00;55.30;;;;;;5051448;28;20167;-61
2023/12/05 00:23:43;;;;;;;2.70;2.50;;;16.00;55.30;;;;;;5050705;28;20215;-62
2023/12/05 00:26:09;;;;;;;2.63;2.42;;;15.90;55.30;;;;;;5051601;28;20175;-62
2023/12/05 00:28:34;;;;;;;2.53;2.33;;;15.90;55.30;;;;;;5051242;28;20254;-61
2023/12/05 00:31:00;;;;;;;2.42;2.33;;;15.90;55.30;;;;;;5050785;28;20179;-61
2023/12/05 00:33:26;;;;;;;2.50;2.30;;;15.90;55.30;;;;;;5051101;28;20171;-61
2023/12/05 00:35:51;;;;;;;2.30;2.20;;;15.90;55.30;;;;;;5051344;28;20182;-62
2023/12/05 00:38:17;;;;;;;2.63;2.42;;;15.90;55.30;;;;;;5050510;28;20171;-61
2023/12/05 00:40:42;;;;;;;2.58;2.30;;;15.80;55.30;;;;;;5051507;28;20171;-61
2023/12/05 00:43:08;;;;;;;2.50;2.30;;;15.80;55.30;;;;;;5053819;28;20213;-61
2023/12/05 00:45:33;;;;;;;3.13;2.03;;;15.80;55.30;;;;;;5054047;28;20179;-61
2023/12/05 00:47:59;;;;;;;2.60;2.40;;;15.80;55.30;;;;;;5054875;28;20176;-61
2023/12/05 00:50:24;;;;;;;2.70;2.50;;;15.80;55.20;;;;;;5054742;28;20641;-61
2023/12/05 00:52:50;;;;;;;2.65;2.45;;;15.80;55.30;;;;;;5054046;28;20273;-61
2023/12/05 00:55:15;;;;;;;2.70;2.50;;;15.80;55.30;;;;;;5054557;28;20569;-61
2023/12/05 00:57:41;;;;;;;2.67;2.47;;;15.70;55.30;;;;;;5054792;28;20521;-61
2023/12/05 01:00:10;;;;;;;2.38;2.17;;;15.70;55.30;;;;;;5053959;28;20175;-61
2023/12/05 01:02:35;;;;;;;2.20;2.10;;;15.70;55.20;;;;;;5054233;28;20313;-60
2023/12/05 01:05:02;;;;;;;2.50;2.30;;;15.70;55.30;;;;;;5054409;28;20668;-60
2023/12/05 01:07:28;;;;;;;3.22;2.95;;;15.70;55.30;;;;;;5053638;28;20179;-61
2023/12/05 01:09:53;;;;;;;2.53;2.33;;;15.70;55.30;;;;;;5054543;28;20190;-62
2023/12/05 01:12:19;;;;;;;2.50;2.30;;;15.70;55.30;;;;;;5053543;28;20548;-61
2023/12/05 01:14:44;;;;;;;2.65;2.45;;;15.70;55.30;;;;;;5054560;28;20675;-61
2023/12/05 01:17:10;;;;;;;2.05;1.92;;;15.70;55.30;;;;;;5054294;28;20541;-61
2023/12/05 01:19:37;;;;;;;2.70;2.40;;;15.70;55.30;;;;;;5053516;28;20637;-61
2023/12/05 01:22:03;;;;;;;2.38;2.20;;;15.60;55.20;;;;;;5054169;28;20179;-61
2023/12/05 01:24:28;;;;;;;2.83;2.63;;;15.60;55.30;;;;;;5053932;28;20298;-61
2023/12/05 01:26:54;;;;;;;2.50;2.40;;;15.60;55.20;;;;;;5053615;28;20626;-61
2023/12/05 01:29:19;;;;;;;2.60;2.40;;;15.60;55.20;;;;;;5053870;28;20201;-61
2023/12/05 01:31:45;;;;;;;2.30;2.20;;;15.60;55.20;;;;;;5053875;28;20545;-61
2023/12/05 01:34:11;;;;;;;2.45;2.25;;;15.60;55.20;;;;;;5053398;28;20249;-62
2023/12/05 01:36:36;;;;;;;2.38;2.20;;;15.60;55.20;;;;;;5053788;28;20647;-61
2023/12/05 01:39:02;;;;;;;2.65;2.45;;;15.60;55.20;;;;;;5053994;28;20186;-61
2023/12/05 01:41:27;;;;;;;2.30;2.10;;;15.60;55.20;;;;;;5053012;28;20172;-61
2023/12/05 01:43:53;;;;;;;2.30;2.10;;;15.60;55.20;;;;;;5053698;28;20207;-61
2023/12/05 01:46:20;;;;;;;2.70;2.50;;;15.50;55.20;;;;;;5053429;28;20194;-61
2023/12/05 01:48:45;;;;;;;2.40;2.20;;;15.50;55.20;;;;;;5051857;28;20171;-61
2023/12/05 01:51:11;;;;;;;2.50;2.30;;;15.50;55.20;;;;;;5036000;28;20175;-61
2023/12/05 01:53:38;;;;;;;2.08;1.98;;;15.50;55.20;;;;;;5052411;28;20314;-61
2023/12/05 01:56:04;;;;;;;2.40;2.20;;;15.50;55.20;;;;;;5051725;28;20179;-62
2023/12/05 01:58:31;;;;;;;2.13;1.92;;;15.50;55.20;;;;;;5053342;28;20262;-60
2023/12/05 02:00:56;;;;;;;2.60;2.40;;;15.50;55.20;;;;;;5052216;28;20182;-60
2023/12/05 02:03:22;;;;;;;2.63;2.42;;;15.50;55.20;;;;;;5052347;28;20183;-60
2023/12/05 02:05:47;;;;;;;2.80;2.60;;;15.50;55.20;;;;;;5053197;28;20179;-61
2023/12/05 02:08:15;;;;;;;2.58;2.40;;;15.50;55.20;;;;;;5051992;28;20585;-61
2023/12/05 02:10:40;;;;;;;2.50;2.30;;;15.40;55.20;;;;;;5051301;28;20183;-61
2023/12/05 02:13:09;;;;;;;2.60;2.40;;;15.40;55.20;;;;;;5053130;28;20669;-61
2023/12/05 02:15:35;;;;;;;2.47;2.35;;;15.40;55.20;;;;;;5051851;28;20638;-61
2023/12/05 02:18:16;;;;;;;2.53;2.33;;;15.40;55.20;;;;;;5052941;28;20217;-61
2023/12/05 02:21:04;;;;;;;2.67;2.47;;;15.40;55.20;;;;;;5051450;28;20209;-60
2023/12/05 02:23:53;;;;;;;2.63;2.42;;;15.40;55.20;;;;;;5050812;28;20257;-61
2023/12/05 02:26:47;;;;;;;2.78;2.58;;;15.40;55.10;;;;;;5051636;28;20526;-60
2023/12/05 02:29:13;;;;;;;2.40;2.30;;;15.40;55.20;;;;;;5044422;28;20613;-61
2023/12/05 02:31:38;;;;;;;2.50;2.30;;;15.40;55.20;;;;;;5052188;28;20202;-61
2023/12/05 02:34:04;;;;;;;2.90;2.70;;;15.40;55.20;;;;;;5052774;28;20256;-61
2023/12/05 02:36:49;;;;;;;2.65;2.45;;;15.40;55.20;;;;;;5052786;28;20179;-60
2023/12/05 02:39:45;;;;;;;2.60;2.40;;;15.30;55.20;;;;;;5052630;28;20234;-61
2023/12/05 02:42:12;;;;;;;2.60;2.40;;;15.30;55.10;;;;;;5037952;28;20179;-61
2023/12/05 02:44:43;;;;;;;2.22;2.13;;;15.30;55.20;;;;;;5051540;28;20211;-61
2023/12/05 02:47:08;;;;;;;2.28;2.17;;;15.30;55.20;;;;;;5051418;28;20622;-61
2023/12/05 02:49:34;;;;;;;2.70;2.50;;;15.30;55.20;;;;;;5051175;28;20183;-61
2023/12/05 02:51:59;;;;;;;2.63;2.42;;;15.30;55.20;;;;;;5050639;28;20167;-62
2023/12/05 02:54:25;;;;;;;2.97;2.78;;;15.30;55.20;;;;;;5052317;28;20593;-61
2023/12/05 02:56:50;;;;;;;2.65;2.45;;;15.30;55.20;;;;;;5052426;28;20634;-61
2023/12/05 02:59:16;;;;;;;2.35;2.20;;;15.30;55.20;;;;;;5051344;28;20179;-61
2023/12/05 03:01:42;;;;;;;2.67;2.47;;;15.30;55.30;;;;;;5052248;28;20186;-60
2023/12/05 03:04:07;;;;;;;3.20;2.90;;;15.30;55.20;;;;;;5052477;28;20211;-60
2023/12/05 03:06:33;;;;;;;2.67;2.47;;;15.30;55.20;;;;;;5051265;28;20179;-61
2023/12/05 03:09:01;;;;;;;2.60;2.40;;;15.20;55.20;;;;;;5052384;28;20179;-61
2023/12/05 03:11:27;;;;;;;2.40;2.20;;;15.30;55.20;;;;;;5051796;28;20163;-61
2023/12/05 03:13:53;;;;;;;2.60;2.40;;;15.20;55.20;;;;;;5051244;28;20657;-61
2023/12/05 03:16:18;;;;;;;2.90;2.70;;;15.20;55.20;;;;;;5051877;28;20262;-61
2023/12/05 03:18:44;;;;;;;2.63;2.42;;;15.20;55.20;;;;;;5052088;28;20265;-61
2023/12/05 03:21:09;;;;;;;3.15;2.90;;;15.20;55.20;;;;;;5051496;28;20174;-61
2023/12/05 03:23:35;;;;;;;3.10;2.90;;;15.20;55.20;;;;;;5051632;28;20194;-62
2023/12/05 03:26:00;;;;;;;2.70;2.50;;;15.20;55.20;;;;;;5051426;28;20270;-61
2023/12/05 03:28:26;;;;;;;3.00;2.80;;;15.20;55.20;;;;;;5051739;28;20170;-61
2023/12/05 03:30:52;;;;;;;2.75;2.38;;;15.20;55.20;;;;;;5052130;28;20555;-61
2023/12/05 03:33:17;;;;;;;2.72;2.53;;;15.20;55.20;;;;;;5051027;28;20793;-61
2023/12/05 03:35:43;;;;;;;2.70;2.55;;;15.20;55.20;;;;;;5051924;28;20179;-61
2023/12/05 03:38:08;;;;;;;3.13;2.83;;;15.10;55.20;;;;;;5052100;28;20177;-61
2023/12/05 03:40:34;;;;;;;3.08;2.88;;;15.10;55.20;;;;;;5050877;28;20237;-61
2023/12/05 03:42:59;;;;;;;3.30;3.00;;;15.10;55.10;;;;;;5051843;28;20562;-61
2023/12/05 03:45:25;;;;;;;2.90;2.70;;;15.10;55.20;;;;;;5051538;28;20207;-62
2023/12/05 03:47:51;;;;;;;2.75;2.55;;;15.10;55.20;;;;;;5051105;28;20229;-61
2023/12/05 03:50:16;;;;;;;3.00;2.60;;;15.10;55.20;;;;;;5051335;28;20167;-62
2023/12/05 03:52:41;;;;;;;2.40;2.28;;;15.10;55.20;;;;;;5051778;28;20269;-61
2023/12/05 03:55:07;;;;;;;2.42;2.28;;;15.10;55.20;;;;;;5051002;28;20220;-61
2023/12/05 03:57:33;;;;;;;3.03;2.78;;;15.10;55.20;;;;;;5051457;28;20236;-61
2023/12/05 03:59:58;;;;;;;2.42;2.33;;;15.10;55.20;;;;;;5051589;28;20175;-61
2023/12/05 04:02:24;;;;;;;2.90;2.70;;;15.10;55.10;;;;;;5050953;28;20179;-60
2023/12/05 04:04:49;;;;;;;2.88;2.67;;;15.10;55.20;;;;;;5051738;28;20215;-61
2023/12/05 04:07:15;;;;;;;2.50;2.30;;;15.10;55.20;;;;;;5051428;28;20175;-61
2023/12/05 04:09:40;;;;;;;2.67;2.47;;;15.10;55.20;;;;;;5050983;28;20193;-61
2023/12/05 04:12:06;;;;;;;3.00;2.80;;;15.00;55.20;;;;;;5051509;28;20190;-62
2023/12/05 04:14:31;;;;;;;2.92;2.72;;;15.00;55.20;;;;;;5051403;28;20175;-61
2023/12/05 04:16:57;;;;;;;2.70;2.53;;;15.00;55.20;;;;;;5051781;28;20171;-61
2023/12/05 04:19:22;;;;;;;2.55;2.35;;;15.00;55.20;;;;;;5055167;28;20179;-61
2023/12/05 04:21:48;;;;;;;2.97;2.78;;;15.00;55.20;;;;;;5055695;28;20198;-61
2023/12/05 04:24:14;;;;;;;3.35;3.15;;;15.00;55.20;;;;;;5053736;28;20569;-61
2023/12/05 04:26:39;;;;;;;2.42;2.25;;;15.00;55.20;;;;;;5055252;28;20174;-61
2023/12/05 04:29:04;;;;;;;2.45;2.25;;;15.00;55.20;;;;;;5055167;28;20634;-61
2023/12/05 04:31:30;;;;;;;2.95;2.75;;;15.00;55.10;;;;;;5054286;28;20171;-61
2023/12/05 04:33:56;;;;;;;2.70;2.50;;;15.00;55.20;;;;;;5055078;28;20176;-60
2023/12/05 04:36:24;;;;;;;2.95;2.70;;;15.00;55.20;;;;;;5054176;28;20172;-61
2023/12/05 04:38:49;;;;;;;3.03;2.80;;;15.00;55.20;;;;;;5055011;28;20225;-61
2023/12/05 04:41:15;;;;;;;3.00;2.80;;;15.00;55.20;;;;;;5054606;28;20199;-61
2023/12/05 04:43:40;;;;;;;3.00;2.80;;;15.00;55.20;;;;;;5054148;28;20191;-61
2023/12/05 04:46:06;;;;;;;2.72;2.50;;;15.00;55.30;;;;;;5054921;28;20175;-61
2023/12/05 04:48:32;;;;;;;2.95;2.75;;;14.90;55.20;;;;;;5054705;28;20175;-61
2023/12/05 04:50:57;;;;;;;2.80;2.60;;;14.90;55.10;;;;;;5054171;28;20175;-62
2023/12/05 04:53:23;;;;;;;3.03;2.83;;;14.90;55.20;;;;;;5054289;28;20564;-61
2023/12/05 04:55:48;;;;;;;2.40;2.30;;;14.90;55.20;;;;;;5054577;28;20186;-61
2023/12/05 04:58:14;;;;;;;2.60;2.40;;;14.90;55.20;;;;;;5054177;28;20540;-61
2023/12/05 05:00:39;;;;;;;2.92;2.72;;;14.90;55.20;;;;;;5054623;28;20630;-61
2023/12/05 05:03:05;;;;;;;2.65;2.45;;;14.90;55.20;;;;;;5054578;28;20175;-61
2023/12/05 05:05:30;;;;;;;3.00;2.80;;;14.90;55.20;;;;;;5053561;28;20218;-61
2023/12/05 05:07:56;;;;;;;2.45;2.25;;;14.90;55.20;;;;;;5054413;28;20626;-61
2023/12/05 05:10:21;;;;;;;2.70;2.50;;;14.90;55.30;;;;;;5053719;28;20187;-62
2023/12/05 05:12:47;;;;;;;2.88;2.67;;;14.90;55.30;;;;;;5053992;28;20171;-62
2023/12/05 05:15:12;;;;;;;2.85;2.55;;;14.90;55.30;;;;;;5054142;28;20277;-62
2023/12/05 05:17:38;;;;;;;3.08;2.67;;;14.80;55.20;;;;;;5054116;28;20218;-61
2023/12/05 05:20:04;;;;;;;2.63;2.53;;;14.80;55.20;;;;;;5053626;28;20547;-62
2023/12/05 05:22:30;;;;;;;3.05;2.67;;;14.80;55.20;;;;;;5053659;28;20179;-61
2023/12/05 05:24:55;;;;;;;2.63;2.42;;;14.80;55.20;;;;;;5054013;28;20272;-61
2023/12/05 05:27:21;;;;;;;2.90;2.70;;;14.80;55.20;;;;;;5053032;28;20622;-61
2023/12/05 05:29:46;;;;;;;3.10;2.90;;;14.80;55.20;;;;;;5053097;28;20175;-61
2023/12/05 05:32:12;;;;;;;2.65;2.45;;;14.80;55.30;;;;;;5053851;28;20633;-61
2023/12/05 05:34:37;;;;;;;2.80;2.60;;;14.80;55.30;;;;;;5052999;28;20183;-60
2023/12/05 05:37:03;;;;;;;2.63;2.42;;;14.80;55.30;;;;;;5053841;28;20167;-60
2023/12/05 05:39:29;;;;;;;2.60;2.40;;;14.80;55.30;;;;;;5052873;28;20209;-61
2023/12/05 05:41:54;;;;;;;2.83;2.63;;;14.80;55.30;;;;;;5054063;28;20228;-61
2023/12/05 05:44:20;;;;;;;2.45;2.25;;;14.80;55.30;;;;;;5053436;28;20799;-61
2023/12/05 05:46:45;;;;;;;3.33;3.03;;;14.80;55.30;;;;;;5053028;28;20204;-60
2023/12/05 05:49:11;;;;;;;3.03;2.83;;;14.80;55.30;;;;;;5053810;28;20191;-61
2023/12/05 05:51:36;;;;;;;2.80;2.60;;;14.80;55.30;;;;;;5053410;28;20174;-61
2023/12/05 05:54:02;;;;;;;2.85;2.65;;;14.80;55.50;;;;;;5052638;28;20719;-61
2023/12/05 05:56:27;;;;;;;2.42;2.22;;;14.80;55.50;;;;;;5053269;28;20175;-61
2023/12/05 05:58:53;;;;;;;2.67;2.47;;;14.70;55.40;;;;;;5053704;28;20186;-60
2023/12/05 06:01:18;;;;;;;2.60;2.40;;;14.70;55.30;;;;;;5052692;28;20264;-60
2023/12/05 06:03:44;;;;;;;2.47;2.30;;;14.70;55.30;;;;;;5053321;28;20286;-60
2023/12/05 06:06:09;;;;;;;2.85;2.65;;;14.70;55.50;;;;;;5053358;28;20175;-61
2023/12/05 06:08:35;;;;;;;2.40;2.20;;;14.70;55.50;;;;;;5052350;28;20175;-61
2023/12/05 06:11:07;;;;;;;2.67;2.53;;;14.70;55.50;;;;;;5053532;28;20182;-62
2023/12/05 06:13:32;;;;;;;2.78;2.58;;;14.80;55.40;;;;;;5053227;28;20206;-61
2023/12/05 06:15:58;;;;;;;2.65;2.45;;;14.80;55.40;;;;;;5052553;28;20224;-61
2023/12/05 06:18:23;;;;;;;2.40;2.20;;;14.80;55.30;;;;;;5052982;28;20580;-61
2023/12/05 06:20:51;;;;;;;2.63;2.42;;;14.80;55.30;;;;;;5053257;28;20754;-61
2023/12/05 06:23:17;;;;;;;2.63;2.50;;;14.90;55.40;;;;;;5051921;28;20185;-61
2023/12/05 06:25:42;;;;;;;2.55;2.35;;;14.90;55.30;;;;;;5052866;28;20215;-61
2023/12/05 06:28:08;;;;;;;2.03;1.92;;;15.00;55.30;;;;;;5052958;28;20262;-61
2023/12/05 06:30:33;;;;;;;2.05;1.95;;;15.00;55.30;;;;;;5052029;28;20274;-61
2023/12/05 06:32:59;;;;;;;1.80;1.70;;;15.10;55.60;;;;;;5052770;28;20262;-61
2023/12/05 06:35:24;;;;;;;2.25;2.10;;;15.20;55.50;;;;;;5052311;28;20175;-61
2023/12/05 06:37:53;;;;;;;2.20;2.10;;;15.30;55.40;;;;;;5052103;28;20221;-61
2023/12/05 06:40:18;;;;;;;2.28;2.17;;;15.30;55.30;;;;;;5052292;28;20180;-60
2023/12/05 06:42:44;;;;;;;1.98;1.88;;;15.40;55.20;;;;;;5052552;28;20539;-60
2023/12/05 06:45:10;;;;;;;2.13;2.00;;;15.50;55.20;;;;;;5052214;28;20555;-61
2023/12/05 06:47:35;;;;;;;2.25;2.00;;;15.60;55.00;;;;;;5052308;28;20659;-60
2023/12/05 06:50:05;;;;;;;1.83;1.73;;;15.60;54.90;;;;;;5051897;28;20224;-61
2023/12/05 06:52:30;;;;;;;1.90;1.80;;;15.70;54.80;;;;;;5052045;28;20430;-61
2023/12/05 06:54:56;;;;;;;2.00;1.90;;;15.80;54.70;;;;;;5052484;28;20189;-61
2023/12/05 06:57:21;;;;;;;1.90;1.80;;;15.80;54.60;;;;;;5051712;28;20258;-61
2023/12/05 06:59:47;;;;;;;1.70;1.60;;;15.80;54.60;;;;;;5052595;28;20214;-61
2023/12/05 07:02:12;;;;;;;1.77;1.67;;;15.90;54.60;;;;;;5052460;28;20258;-60
2023/12/05 07:04:38;;;;;;;1.50;1.45;;;15.80;54.60;;;;;;5051415;28;20215;-60
2023/12/05 07:07:04;;;;;;;1.80;1.60;;;15.80;54.60;;;;;;5052267;28;20258;-61
2023/12/05 07:09:30;;;;;;;2.08;1.98;;;15.80;54.70;;;;;;5051915;28;20729;-61
2023/12/05 07:11:56;;;;;;;1.80;1.70;;;15.70;54.80;;;;;;5051433;28;20210;-62
2023/12/05 07:14:22;;;;;;;1.77;1.67;;;15.80;54.90;;;;;;5051889;28;20210;-61
2023/12/05 07:16:47;;;;;;;1.80;1.70;;;15.90;54.90;;;;;;5052190;28;20171;-61
2023/12/05 07:19:12;;;;;;;1.55;1.45;;;15.90;54.70;;;;;;5051536;28;20178;-61
2023/12/05 07:21:38;;;;;;;1.77;1.67;;;16.00;54.70;;;;;;5051854;28;20178;-61
2023/12/05 07:24:04;;;;;;;1.73;1.63;;;16.20;54.50;;;;;;5052174;28;20218;-61
2023/12/05 07:26:29;;;;;;;1.95;1.70;;;16.30;54.40;;;;;;5050999;28;20266;-60
2023/12/05 07:28:55;;;;;;;1.85;1.73;;;16.60;54.20;;;;;;5052171;28;20175;-61
2023/12/05 07:31:21;;;;;;;1.73;1.63;;;16.70;53.80;;;;;;5051442;28;20175;-61
2023/12/05 07:33:46;;;;;;;1.77;1.67;;;17.00;53.40;;;;;;5051247;28;20183;-61
2023/12/05 07:36:12;;;;;;;2.05;1.90;;;17.10;53.00;;;;;;5051621;28;20178;-61
2023/12/05 07:38:38;;;;;;;2.25;1.90;;;17.30;52.70;;;;;;5051869;28;20331;-73
2023/12/05 07:41:04;;;;;;;1.80;1.70;;;17.40;52.60;;;;;;5051135;28;20698;-67
2023/12/05 07:43:29;;;;;;;4.30;1.80;;;17.40;52.60;;;;;;5051649;28;20286;-66
2023/12/05 07:45:55;;;;;;;1.63;1.33;;;17.50;52.70;;;;;;5051853;28;20183;-66
2023/12/05 07:48:21;;;;;;;2.90;1.90;;;17.50;52.70;;;;;;5050906;28;20258;-67
2023/12/05 07:50:47;;;;;;;3.00;1.67;;;17.40;53.20;;;;;;5051627;28;20258;-65
2023/12/05 07:53:12;;;;;;;2.67;1.85;;;17.40;53.30;;;;;;5053946;28;20301;-66
2023/12/05 07:55:38;;;;;;;4.65;2.55;;;17.40;53.40;;;;;;5055700;28;20300;-67
2023/12/05 07:58:03;;;;;;;2.80;1.80;;;17.40;53.40;;;;;;5055948;28;20246;-67
2023/12/05 08:00:29;;;;;;;1.63;1.50;;;17.30;53.60;;;;;;5054881;28;20581;-66
2023/12/05 08:02:54;;;;;;;3.22;1.90;;;17.30;53.70;;;;;;5055642;28;20874;-69
2023/12/05 08:05:20;;;;;;;2.85;1.83;;;17.30;53.80;;;;;;5054783;28;20486;-68
2023/12/05 08:07:45;;;;;;;5.10;2.08;;;17.30;54.00;;;;;;5055116;28;20178;-69
2023/12/05 08:10:11;;;;;;;2.15;1.85;;;17.20;55.00;;;;;;5055802;28;20201;-72
2023/12/05 08:12:37;;;;;;;4.30;2.20;;;17.20;54.70;;;;;;5054972;28;20167;-67
2023/12/05 08:15:03;;;;;;;2.65;1.65;;;17.10;54.90;;;;;;5054687;28;20613;-65
2023/12/05 08:17:29;;;;;;;2.97;1.90;;;17.10;55.20;;;;;;5054657;28;20172;-67
2023/12/05 08:19:54;;;;;;;3.78;1.92;;;17.10;55.20;;;;;;5055376;28;20209;-68
2023/12/05 08:22:21;;;;;;;2.92;1.98;;;17.10;55.30;;;;;;5054632;28;20167;-68
2023/12/05 08:24:47;;;;;;;3.92;1.98;;;17.00;55.40;;;;;;5055446;28;20211;-68
2023/12/05 08:27:13;;;;;;;5.60;2.20;;;16.90;55.40;;;;;;5055336;28;20175;-68
2023/12/05 08:29:39;;;;;;;1.85;1.75;;;17.00;55.40;;;;;;5054470;28;20175;-69
2023/12/05 08:32:07;;;;;;;3.20;1.92;;;16.90;55.50;;;;;;5055317;28;20206;-70
2023/12/05 08:34:33;;;;;;;3.15;2.00;;;16.90;55.70;;;;;;5053646;28;20210;-70
2023/12/05 08:36:58;;;;;;;2.08;1.95;;;16.90;55.80;;;;;;5054398;28;20645;-69
2023/12/05 08:39:24;;;;;;;3.50;2.28;;;16.90;55.80;;;;;;5054925;28;20186;-70
2023/12/05 08:41:49;;;;;;;2.38;1.88;;;16.90;55.90;;;;;;5055039;28;20571;-70
2023/12/05 08:44:16;;;;;;;3.38;1.60;;;16.90;55.90;;;;;;5052630;28;20210;-70
2023/12/05 08:46:41;;;;;;;2.25;1.67;;;16.80;55.80;;;;;;5055028;28;20668;-69
2023/12/05 08:49:07;;;;;;;3.17;2.05;;;16.80;55.80;;;;;;5054777;28;20253;-69
2023/12/05 08:51:32;;;;;;;2.25;1.55;;;16.80;55.80;;;;;;5053924;28;20266;-69
2023/12/05 08:53:58;;;;;;;3.55;1.92;;;16.80;56.00;;;;;;5054568;28;20222;-69
2023/12/05 08:56:23;;;;;;;2.45;1.75;;;16.80;56.10;;;;;;5054067;28;20167;-69
2023/12/05 08:58:49;;;;;;;2.08;1.92;;;16.80;56.00;;;;;;5054948;28;20194;-68
2023/12/05 09:01:14;;;;;;;2.13;1.92;;;16.80;56.10;;;;;;5054410;28;20206;-68
2023/12/05 09:03:40;;;;;;;1.88;1.77;;;16.80;56.20;;;;;;5053454;28;20666;-69
2023/12/05 09:06:06;;;;;;;1.98;1.77;;;16.70;56.10;;;;;;5054545;28;20167;-69
2023/12/05 09:08:31;;;;;;;4.50;2.38;;;16.80;56.30;;;;;;5054314;28;20183;-70
2023/12/05 09:10:57;;;;;;;2.10;1.60;;;16.70;56.20;;;;;;5053892;28;20183;-68
2023/12/05 09:13:23;;;;;;;1.80;1.70;;;16.70;56.20;;;;;;5054238;28;20278;-68
2023/12/05 09:15:48;;;;;;;2.25;1.58;;;16.70;56.20;;;;;;5054441;28;20224;-68
2023/12/05 09:18:14;;;;;;;1.98;1.60;;;16.70;56.30;;;;;;5053337;28;20250;-69
2023/12/05 09:20:40;;;;;;;2.08;1.98;;;16.70;56.30;;;;;;5054224;28;20170;-68
2023/12/05 09:23:05;;;;;;;3.70;1.95;;;16.70;56.30;;;;;;5054152;28;20661;-68
2023/12/05 09:25:31;;;;;;;2.53;1.50;;;16.70;56.30;;;;;;5053273;28;20219;-69
2023/12/05 09:27:56;;;;;;;1.98;1.70;;;16.70;56.30;;;;;;5054170;28;20171;-69
2023/12/05 09:30:22;;;;;;;2.65;1.80;;;16.70;56.30;;;;;;5053790;28;20564;-68
2023/12/05 09:32:47;;;;;;;1.92;1.70;;;16.70;56.30;;;;;;5053306;28;20164;-69
2023/12/05 09:35:13;;;;;;;2.10;1.90;;;16.70;56.30;;;;;;5053895;28;20175;-69
2023/12/05 09:37:38;;;;;;;1.88;1.70;;;16.70;56.50;;;;;;5053693;28;20163;-69
2023/12/05 09:40:04;;;;;;;1.98;1.80;;;16.70;56.40;;;;;;5053094;28;20175;-69
2023/12/05 09:42:30;;;;;;;1.80;1.70;;;16.70;56.40;;;;;;5053484;28;20178;-69
2023/12/05 09:44:55;;;;;;;1.60;1.50;;;16.70;56.30;;;;;;5053797;28;20215;-69
2023/12/05 09:47:21;;;;;;;2.20;1.77;;;16.70;56.30;;;;;;5051465;28;20183;-69
2023/12/05 09:49:47;;;;;;;1.92;1.77;;;16.70;56.50;;;;;;5053668;28;20229;-69
2023/12/05 09:52:12;;;;;;;2.42;1.52;;;16.60;56.40;;;;;;5053756;28;20257;-69
2023/12/05 09:54:38;;;;;;;1.60;1.50;;;16.60;56.60;;;;;;5051570;28;20548;-68
2023/12/05 09:57:04;;;;;;;1.80;1.70;;;16.50;56.70;;;;;;5052452;28;20535;-68
2023/12/05 09:59:29;;;;;;;1.65;1.55;;;16.50;56.70;;;;;;5052176;28;20182;-67
2023/12/05 10:01:57;;;;;;;2.25;1.80;;;16.50;56.70;;;;;;5052400;28;20175;-69
2023/12/05 10:04:23;;;;;;;3.05;1.98;;;16.50;56.70;;;;;;5053260;28;20215;-66
2023/12/05 10:06:48;;;;;;;1.70;1.60;;;16.60;56.60;;;;;;5035010;28;20175;-68
2023/12/05 10:09:17;;;;;;;1.65;1.50;;;16.80;56.50;;;;;;5034853;28;20225;-69
2023/12/05 10:11:43;;;;;;;2.05;1.40;;;16.90;56.30;;;;;;5052061;28;20171;-68
2023/12/05 10:14:08;;;;;;;3.95;1.70;;;17.10;56.00;;;;;;5052295;28;20539;-67
2023/12/05 10:16:34;;;;;;;3.53;1.45;;;17.30;55.60;;;;;;5052385;28;20232;-67
2023/12/05 10:18:59;;;;;;;1.88;1.30;;;17.50;55.50;;;;;;5035485;28;20212;-66
2023/12/05 10:21:25;;;;;;;1.63;1.48;;;17.70;55.10;;;;;;5050905;28;20538;-67
2023/12/05 10:23:51;;;;;;;2.15;1.52;;;17.80;54.80;;;;;;5053146;28;20205;-67
2023/12/05 10:26:17;;;;;;;1.80;1.40;;;17.90;54.60;;;;;;5051591;28;20198;-68
2023/12/05 10:28:54;;;;;;;1.65;1.40;;;18.10;54.30;;;;;;5052281;28;20206;-68
2023/12/05 10:31:19;;;;;;;2.03;1.25;;;18.20;54.80;;;;;;5052707;28;20182;-67
2023/12/05 10:33:46;;;;;;;2.60;1.33;;;18.30;54.00;;;;;;5053050;28;20680;-67
2023/12/05 10:36:11;;;;;;;1.95;1.30;;;18.30;54.00;;;;;;5051127;28;20244;-69
2023/12/05 10:38:37;;;;;;;2.10;1.25;;;18.30;54.00;;;;;;5052534;28;20175;-68
2023/12/05 10:41:03;;;;;;;2.38;1.40;;;18.30;54.10;;;;;;5052636;28;20545;-68
2023/12/05 10:43:28;;;;;;;2.80;1.30;;;18.30;54.00;;;;;;5051671;28;20175;-68
2023/12/05 10:45:54;;;;;;;1.20;1.20;;;18.30;54.10;;;;;;5052446;28;20221;-68
2023/12/05 10:48:21;;;;;;;1.30;1.20;;;18.30;54.10;;;;;;5052420;28;20179;-68
2023/12/05 10:50:47;;;;;;;1.67;1.25;;;18.10;54.30;;;;;;5052084;28;20183;-68
2023/12/05 10:53:14;;;;;;;1.20;1.20;;;18.10;54.50;;;;;;5052415;28;20245;-68
2023/12/05 10:55:40;;;;;;;1.65;1.23;;;18.10;54.60;;;;;;5052521;28;20179;-68
2023/12/05 10:58:06;;;;;;;1.30;1.13;;;18.00;54.60;;;;;;5051784;28;20373;-68
2023/12/05 11:00:32;;;;;;;2.28;1.17;;;18.00;54.80;;;;;;5034425;28;20299;-67
2023/12/05 11:02:57;;;;;;;2.33;1.25;;;17.90;54.80;;;;;;5051100;28;20361;-67
2023/12/05 11:05:23;;;;;;;1.45;1.35;;;17.90;54.90;;;;;;5050476;28;20214;-68
2023/12/05 11:07:49;;;;;;;1.23;1.15;;;17.90;54.90;;;;;;5052309;28;20245;-68
2023/12/05 11:10:16;;;;;;;2.13;1.40;;;17.90;55.00;;;;;;5051427;28;20191;-68
2023/12/05 11:12:42;;;;;;;2.30;1.20;;;17.90;55.00;;;;;;5051068;28;20171;-68
2023/12/05 11:15:08;;;;;;;1.10;1.00;;;17.90;55.10;;;;;;5051903;28;20225;-66
2023/12/05 11:17:36;;;;;;;1.10;1.00;;;17.90;55.10;;;;;;5050084;28;20175;-70
2023/12/05 11:20:20;;;;;;;3.70;1.10;;;17.90;55.20;;;;;;5051060;28;20198;-68
2023/12/05 11:23:16;;;;;;;1.60;1.50;;;17.90;55.10;;;;;;5052211;28;20179;-68
2023/12/05 11:26:04;;;;;;;1.77;1.35;;;17.80;55.10;;;;;;5050166;28;20739;-63
2023/12/05 11:28:54;;;;;;;1.90;1.30;;;17.80;55.20;;;;;;5051672;28;20183;-63
2023/12/05 11:31:24;;;;;;;1.48;1.38;;;17.80;55.30;;;;;;5051089;28;20186;-64
2023/12/05 11:34:19;;;;;;;2.22;1.27;;;17.70;55.30;;;;;;5050799;28;20201;-64
2023/12/05 11:37:21;;;;;;;1.50;1.40;;;17.70;55.30;;;;;;5036271;28;20301;-63
2023/12/05 11:39:46;;;;;;;3.30;1.77;;;17.70;55.30;;;;;;5049657;28;20175;-64
2023/12/05 11:42:14;;;;;;;3.25;1.70;;;17.60;55.30;;;;;;5050218;28;20171;-63
2023/12/05 11:44:42;;;;;;;2.78;2.50;;;17.60;55.30;;;;;;5051771;28;20211;-65
2023/12/05 11:47:16;;;;;;;1.65;1.42;;;17.60;55.30;;;;;;5051281;28;20202;-65
2023/12/05 11:49:49;;;;;;;2.75;1.90;;;17.60;55.30;;;;;;5051972;28;20176;-66
2023/12/05 11:52:15;;;;;;;2.22;1.35;;;17.60;55.30;;;;;;5050520;28;20634;-65
2023/12/05 11:54:42;;;;;;;2.47;1.95;;;17.50;55.50;;;;;;5051843;28;20209;-65
2023/12/05 11:57:18;;;;;;;1.73;1.50;;;17.50;55.60;;;;;;5051967;28;20536;-65
2023/12/05 11:59:48;;;;;;;2.13;1.88;;;17.40;55.60;;;;;;5051162;28;20182;-65
2023/12/05 12:02:17;;;;;;;4.65;1.55;;;17.40;55.70;;;;;;5051740;28;20198;-65
2023/12/05 12:04:45;;;;;;;2.67;1.60;;;17.40;55.90;;;;;;5051362;28;20603;-66
2023/12/05 12:07:10;;;;;;;1.60;1.50;;;17.30;55.90;;;;;;5050959;28;20205;-66
2023/12/05 12:09:39;;;;;;;1.58;1.30;;;17.30;55.90;;;;;;5051324;28;20179;-66
2023/12/05 12:12:05;;;;;;;2.40;1.80;;;17.30;56.10;;;;;;5051714;28;20263;-67
2023/12/05 12:14:31;;;;;;;4.47;2.05;;;17.20;56.10;;;;;;5050762;28;20202;-65
2023/12/05 12:16:56;;;;;;;3.15;1.85;;;17.10;56.40;;;;;;5051426;28;20662;-65
2023/12/05 12:19:22;;;;;;;4.15;2.25;;;17.10;56.60;;;;;;5050039;28;20187;-66
2023/12/05 12:21:48;;;;;;;4.50;2.55;;;17.00;56.70;;;;;;5050797;28;20249;-66
2023/12/05 12:24:20;;;;;;;2.45;2.22;;;17.00;56.80;;;;;;5033875;28;20253;-67
2023/12/05 12:26:56;;;;;;;2.67;2.33;;;16.90;56.90;;;;;;5051595;28;20167;-67
2023/12/05 12:29:21;;;;;;;3.67;2.38;;;16.90;57.10;;;;;;5050353;28;20195;-67
2023/12/05 12:31:48;;;;;;;3.70;2.55;;;16.80;57.10;;;;;;5050961;28;20179;-67
2023/12/05 12:34:26;;;;;;;2.45;2.25;;;16.80;57.30;;;;;;5051167;28;20183;-66
2023/12/05 12:36:57;;;;;;;6.22;2.67;;;16.70;57.30;;;;;;5050281;28;20171;-67
2023/12/05 12:39:25;;;;;;;4.15;2.35;;;16.70;57.20;;;;;;5054080;28;20183;-66
2023/12/05 12:41:51;;;;;;;2.67;2.47;;;16.70;57.40;;;;;;5053276;28;20189;-66
2023/12/05 12:44:16;;;;;;;3.55;3.00;;;16.60;57.30;;;;;;5054453;28;20211;-67
2023/12/05 12:46:42;;;;;;;3.08;2.40;;;16.60;57.30;;;;;;5054945;28;20191;-66